createdAt,value
2024-01-20T13:36:50.673Z,23.3
2024-01-20T13:42:30.832Z,26.3
2024-01-20T13:48:09.454Z,24.3
2024-01-20T13:53:52.777Z,23.4
2024-01-20T13:59:45.903Z,26.5
2024-01-20T14:05:26.002Z,24.2
2024-01-20T14:11:05.400Z,23.9
2024-01-20T14:16:44.172Z,26.5
2024-01-20T14:22:26.482Z,23.9
2024-01-20T14:28:09.037Z,24
2024-01-20T14:33:48.652Z,26.1
2024-01-20T14:39:27.577Z,23.9
2024-01-20T14:44:50.866Z,23
2024-01-20T14:50:31.514Z,22.5
2024-01-20T14:56:10.477Z,27.3
2024-01-20T15:01:50.274Z,29.4
2024-01-20T15:07:33.148Z,31.1
2024-01-20T15:13:13.344Z,32.8
2024-01-20T15:18:54.522Z,33.6
2024-01-20T15:24:35.866Z,33.9
2024-01-20T15:30:15.242Z,33.9
2024-01-20T15:35:57.901Z,35.3
2024-01-20T15:41:38.659Z,33.7
2024-01-20T15:47:17.083Z,34.5
2024-01-20T15:52:57.451Z,34.1
2024-01-20T15:58:20.853Z,32.6
2024-01-20T16:04:00.332Z,34.8
2024-01-20T16:09:42.049Z,32.4
2024-01-20T16:15:23.003Z,35.7
2024-01-20T16:21:03.925Z,33.9
2024-01-20T16:26:29.506Z,35.1
2024-01-20T16:31:53.873Z,35.4
2024-01-20T16:37:18.382Z,36.1
2024-01-20T16:42:59.568Z,35.9
2024-01-20T16:48:38.596Z,36.5
2024-01-20T16:54:10.094Z,36.8
2024-01-20T16:59:31.515Z,36.8
2024-01-20T17:04:59.563Z,37.4
2024-01-20T17:10:07.811Z,35.4
2024-01-20T17:15:30.918Z,37.8
2024-01-20T17:20:55.279Z,37.2
2024-01-20T17:26:34.476Z,37.1
2024-01-20T17:31:44.042Z,36.4
2024-01-20T17:37:25.911Z,36.6
2024-01-20T17:42:49.876Z,40.3
2024-01-20T17:48:29.197Z,38.8
2024-01-20T17:53:37.549Z,36.5
2024-01-20T17:59:00.809Z,38.3
2024-01-20T18:04:12.799Z,34.6
2024-01-20T18:09:37.652Z,38.6
2024-01-20T18:15:16.054Z,37.8
2024-01-20T18:20:56.162Z,38.3
2024-01-20T18:26:35.086Z,37
2024-01-20T18:32:16.245Z,38.6
2024-01-20T18:37:55.640Z,40.6
2024-01-20T18:43:34.834Z,41.2
2024-01-20T18:49:00.916Z,40.7
2024-01-20T18:54:24.412Z,39.3
2024-01-20T19:00:03.024Z,37.2
2024-01-20T19:05:42.518Z,39.2
2024-01-20T19:11:07.727Z,38.7
2024-01-20T19:16:32.881Z,38.3
2024-01-20T19:22:15.138Z,36.4
2024-01-20T19:28:10.020Z,38.4
2024-01-20T19:33:51.035Z,34.6
2024-01-20T19:39:15.017Z,35.7
2024-01-20T19:44:56.075Z,37.9
2024-01-20T19:50:36.504Z,38.1
2024-01-20T19:56:15.644Z,41.4
2024-01-20T20:01:57.519Z,43.2
2024-01-20T20:07:37.335Z,43.3
2024-01-20T20:13:16.746Z,42.7
2024-01-20T20:18:24.698Z,41.4
2024-01-20T20:24:04.185Z,38.8
2024-01-20T20:29:43.056Z,37.1
2024-01-20T20:35:47.514Z,38.7
2024-01-20T20:41:27.093Z,38.1
2024-01-20T20:47:06.454Z,34.2
2024-01-20T20:52:46.568Z,35.8
2024-01-20T20:58:25.951Z,37.3
2024-01-20T21:04:07.653Z,36.3
2024-01-20T21:09:16.086Z,34.1
2024-01-20T21:14:55.070Z,32.4
2024-01-20T21:20:20.264Z,30.7
2024-01-20T21:25:59.712Z,29.1
2024-01-20T21:31:39.566Z,26.4
2024-01-20T21:37:20.905Z,26.3
2024-01-20T21:42:58.928Z,25.7
2024-01-20T21:48:38.260Z,25.2
2024-01-20T21:54:17.863Z,24.6
2024-01-20T21:59:57.344Z,24.1
2024-01-20T22:05:36.929Z,23.6
2024-01-20T22:10:59.721Z,23.3
2024-01-20T22:16:38.426Z,22.9
2024-01-20T22:22:17.849Z,24.9
2024-01-20T22:27:56.268Z,25.7
2024-01-20T22:33:47.127Z,24.8
2024-01-20T22:39:27.302Z,24.1
2024-01-20T22:44:50.562Z,23.6
2024-01-20T22:50:31.129Z,23.2
2024-01-20T22:56:10.389Z,23
2024-01-20T23:01:49.909Z,26.6
2024-01-20T23:07:29.553Z,25.3
2024-01-20T23:13:10.997Z,24.4
2024-01-20T23:18:49.779Z,23.6
2024-01-20T23:24:29.690Z,23.1
2024-01-20T23:30:08.464Z,22.8
2024-01-20T23:35:48.176Z,24.6
2024-01-20T23:41:27.960Z,27.1
2024-01-20T23:47:06.793Z,25.1
2024-01-20T23:52:31.187Z,24.1
2024-01-20T23:57:54.381Z,23.4
